Agana Heights, Guam
Current Conditions -  °F | °C
As of 2:54 PM on Monday 22 Dec 2014 (Local Time) from PGUM Reporting Station
Few Clouds Few Clouds  
Wind Chill: 88°   Ceiling: Unl
Heat Index: 98°   Visibility: 10mi
Dew Point: 75°   Wind: 16mph
Humidity: 65%   Direction: 90°E
Pressure: 29.85"   Gusts: 23mph
Location:  13.47°N, 144.74°E
Report Text: PGUM 220454Z 09014G20KT 10SM FEW022 31/24 A2985 RMK AO2 SLP100 T03110239 $
Loading
Personal Weather Stations






























Interactive Weather Map New forecast layout! Learn more

10-Day Weather Forecast

Advertisements
Track Severe Weather on mobile